createdAt,value
2023-05-08T00:02:27.104Z,88.81
2023-05-08T00:04:54.960Z,88.86
2023-05-08T00:07:22.153Z,88.20
2023-05-08T00:09:48.993Z,88.14
2023-05-08T00:12:17.509Z,87.71
2023-05-08T00:14:44.865Z,87.82
2023-05-08T00:17:11.630Z,87.96
2023-05-08T00:19:39.569Z,87.65
2023-05-08T00:22:06.879Z,87.20
2023-05-08T00:24:33.674Z,87.63
2023-05-08T00:27:01.425Z,87.18
2023-05-08T00:29:30.405Z,86.84
2023-05-08T00:31:58.110Z,86.99
2023-05-08T00:34:24.880Z,86.76
2023-05-08T00:36:52.290Z,86.93
2023-05-08T00:39:19.580Z,86.82
2023-05-08T00:41:46.609Z,86.70
2023-05-08T00:44:13.386Z,86.21
2023-05-08T00:46:43.636Z,85.99
2023-05-08T00:49:12.023Z,86.05
2023-05-08T00:51:39.873Z,85.95
2023-05-08T00:54:07.679Z,86.01
2023-05-08T00:56:37.653Z,85.16
2023-05-08T00:59:09.545Z,84.91
2023-05-08T01:01:38.048Z,84.60
2023-05-08T01:04:07.863Z,84.64
2023-05-08T01:06:36.042Z,85.06
2023-05-08T01:09:04.149Z,85.18
2023-05-08T01:11:38.296Z,84.98
2023-05-08T01:14:12.084Z,85.42
2023-05-08T01:16:45.481Z,85.18
2023-05-08T01:19:40.402Z,85.07
2023-05-08T01:22:20.573Z,85.25
2023-05-08T01:25:10.739Z,84.95
2023-05-08T01:28:08.530Z,84.93
2023-05-08T01:30:59.034Z,84.96
2023-05-08T01:33:35.739Z,84.80
2023-05-08T01:36:18.134Z,84.98
2023-05-08T01:38:54.104Z,85.04
2023-05-08T01:41:26.619Z,84.68
2023-05-08T01:44:05.857Z,84.50
2023-05-08T01:46:33.999Z,84.00
2023-05-08T01:49:08.523Z,83.70
2023-05-08T01:51:42.252Z,83.86
2023-05-08T01:54:13.401Z,83.95
2023-05-08T01:56:44.275Z,83.63
2023-05-08T01:59:16.075Z,83.45
2023-05-08T02:01:45.485Z,83.52
2023-05-08T02:04:17.649Z,83.08
2023-05-08T02:06:46.038Z,83.00
2023-05-08T02:09:14.452Z,82.89
2023-05-08T02:11:45.097Z,82.90
2023-05-08T02:14:14.010Z,83.06
2023-05-08T02:16:44.196Z,83.04
2023-05-08T02:19:15.387Z,83.25
2023-05-08T02:21:45.998Z,83.66
2023-05-08T02:24:15.550Z,83.53
2023-05-08T02:26:44.653Z,83.63
2023-05-08T02:29:12.889Z,83.42
2023-05-08T02:31:42.653Z,83.91
2023-05-08T02:34:11.906Z,84.60
2023-05-08T02:36:42.924Z,84.55
2023-05-08T02:39:14.601Z,85.02
2023-05-08T02:41:42.749Z,84.70
2023-05-08T02:44:10.736Z,84.67
2023-05-08T02:46:51.079Z,85.30
2023-05-08T02:49:30.348Z,84.92
2023-05-08T02:52:05.977Z,84.96
2023-05-08T02:54:41.007Z,84.71
2023-05-08T02:57:14.999Z,84.32
2023-05-08T02:59:47.625Z,84.66
2023-05-08T03:02:20.371Z,84.32
2023-05-08T03:04:55.133Z,84.49
2023-05-08T03:07:26.792Z,84.44
2023-05-08T03:09:59.350Z,84.82
2023-05-08T03:12:31.058Z,84.88
2023-05-08T03:15:04.202Z,84.97
2023-05-08T03:17:34.089Z,85.69
2023-05-08T03:20:05.632Z,85.68
2023-05-08T03:22:42.715Z,85.88
2023-05-08T03:25:11.539Z,85.92
2023-05-08T03:27:40.372Z,85.91
2023-05-08T03:30:10.097Z,85.75
2023-05-08T03:32:38.997Z,86.04
2023-05-08T03:35:08.062Z,85.99
2023-05-08T03:37:37.814Z,86.04
2023-05-08T03:40:08.434Z,86.61
2023-05-08T03:42:38.134Z,87.31
2023-05-08T03:45:07.504Z,86.63
2023-05-08T03:47:36.710Z,87.05
2023-05-08T03:50:04.982Z,86.84
2023-05-08T03:52:33.108Z,86.55
2023-05-08T03:55:02.269Z,86.89
2023-05-08T03:57:37.718Z,87.23
2023-05-08T04:00:12.765Z,87.33
2023-05-08T04:02:47.312Z,87.41
2023-05-08T04:05:25.595Z,87.18
2023-05-08T04:07:56.746Z,87.84
2023-05-08T04:10:32.295Z,87.69
2023-05-08T04:13:07.361Z,87.69
2023-05-08T04:15:38.384Z,87.38
2023-05-08T04:18:08.517Z,88.00
2023-05-08T04:20:39.590Z,88.20
2023-05-08T04:23:09.312Z,88.10
2023-05-08T04:25:39.892Z,88.95
2023-05-08T04:28:07.828Z,88.28
2023-05-08T04:30:35.628Z,87.96
2023-05-08T04:33:04.671Z,88.20
2023-05-08T04:35:34.220Z,89.30
2023-05-08T04:38:02.268Z,89.06
2023-05-08T04:40:30.116Z,89.14
2023-05-08T04:42:59.448Z,89.75
2023-05-08T04:45:26.747Z,89.46
2023-05-08T04:47:54.369Z,89.38
2023-05-08T04:50:25.227Z,89.37
2023-05-08T04:52:52.668Z,89.74
2023-05-08T04:55:20.536Z,89.92
2023-05-08T04:57:47.887Z,90.63
2023-05-08T05:00:17.690Z,92.36
2023-05-08T05:02:45.698Z,94.48
2023-05-08T05:05:13.466Z,97.57
2023-05-08T05:07:41.248Z,99.52
2023-05-08T05:10:09.521Z,100.00
2023-05-08T05:12:37.856Z,100.00
2023-05-08T05:15:05.861Z,100.00
2023-05-08T05:17:35.868Z,100.00
2023-05-08T05:20:03.577Z,100.00
2023-05-08T05:22:32.472Z,100.00
2023-05-08T05:25:00.168Z,100.00
2023-05-08T05:27:27.628Z,100.00
2023-05-08T05:29:54.954Z,100.00
2023-05-08T05:32:22.727Z,100.00
2023-05-08T05:34:52.026Z,100.00
2023-05-08T05:37:19.441Z,100.00
2023-05-08T05:39:47.073Z,100.00
2023-05-08T05:42:13.852Z,100.00
2023-05-08T05:44:41.697Z,100.00
2023-05-08T05:47:09.167Z,100.00
2023-05-08T05:49:36.731Z,100.00
2023-05-08T05:52:07.127Z,100.00
2023-05-08T05:54:34.657Z,100.00
2023-05-08T05:57:02.083Z,100.00
2023-05-08T05:59:29.285Z,100.00
2023-05-08T06:01:57.161Z,100.00
2023-05-08T06:04:24.790Z,100.00
2023-05-08T06:06:52.192Z,100.00
2023-05-08T06:09:21.252Z,100.00
2023-05-08T06:11:49.065Z,100.00
2023-05-08T06:14:16.314Z,100.00
2023-05-08T06:16:43.991Z,100.00
2023-05-08T06:19:11.382Z,100.00
2023-05-08T06:21:38.823Z,100.00
2023-05-08T06:24:06.747Z,100.00
2023-05-08T06:26:35.659Z,100.00
2023-05-08T06:29:03.142Z,100.00
2023-05-08T06:31:30.747Z,100.00
2023-05-08T06:33:58.394Z,100.00
2023-05-08T06:36:25.853Z,100.00
2023-05-08T06:38:53.474Z,100.00
2023-05-08T06:41:20.675Z,100.00
2023-05-08T06:43:49.717Z,100.00
2023-05-08T06:46:17.810Z,100.00
2023-05-08T06:48:45.242Z,100.00
2023-05-08T06:51:12.863Z,100.00
2023-05-08T06:53:40.252Z,100.00
2023-05-08T06:56:08.335Z,100.00
2023-05-08T06:58:35.875Z,100.00
2023-05-08T07:01:05.663Z,100.00
2023-05-08T07:03:33.250Z,100.00
2023-05-08T07:06:00.556Z,100.00
2023-05-08T07:08:28.227Z,100.00
2023-05-08T07:10:56.391Z,100.00
2023-05-08T07:13:24.167Z,100.00
2023-05-08T07:15:52.018Z,100.00
2023-05-08T07:18:21.322Z,100.00
2023-05-08T07:20:49.268Z,100.00
2023-05-08T07:23:16.904Z,100.00
2023-05-08T07:25:44.519Z,100.00
2023-05-08T07:28:11.969Z,100.00
2023-05-08T07:30:40.326Z,100.00
2023-05-08T07:33:07.790Z,100.00
2023-05-08T07:35:38.803Z,100.00
2023-05-08T07:38:06.179Z,100.00
2023-05-08T07:40:33.947Z,100.00
2023-05-08T07:43:01.417Z,100.00
2023-05-08T07:45:29.294Z,100.00
2023-05-08T07:47:58.498Z,100.00
2023-05-08T07:50:26.950Z,100.00
2023-05-08T07:52:56.009Z,100.00
2023-05-08T07:55:23.466Z,100.00
2023-05-08T07:57:51.149Z,100.00
2023-05-08T08:00:19.312Z,100.00
2023-05-08T08:02:46.211Z,100.00
2023-05-08T08:05:13.545Z,100.00
2023-05-08T08:07:41.644Z,100.00
2023-05-08T08:10:10.902Z,100.00
2023-05-08T08:12:38.577Z,100.00
2023-05-08T08:15:07.220Z,100.00
2023-05-08T08:17:34.101Z,100.00
2023-05-08T08:20:01.926Z,100.00
2023-05-08T08:22:29.932Z,100.00
2023-05-08T08:24:57.760Z,100.00
2023-05-08T08:27:27.969Z,100.00
2023-05-08T08:30:08.322Z,100.00
2023-05-08T08:32:43.302Z,100.00
2023-05-08T08:35:12.143Z,100.00
2023-05-08T08:37:39.522Z,100.00
2023-05-08T08:40:09.780Z,100.00
2023-05-08T08:42:38.071Z,100.00
2023-05-08T08:45:06.717Z,100.00
2023-05-08T08:47:37.738Z,100.00
2023-05-08T08:50:09.466Z,100.00
2023-05-08T08:52:44.731Z,100.00
2023-05-08T08:55:16.075Z,100.00
2023-05-08T08:57:53.139Z,100.00
2023-05-08T09:00:22.331Z,100.00
2023-05-08T09:02:49.672Z,100.00
2023-05-08T09:05:19.207Z,100.00
2023-05-08T09:07:47.080Z,100.00
2023-05-08T09:10:14.064Z,100.00
2023-05-08T09:12:41.536Z,100.00
2023-05-08T09:15:12.265Z,100.00
2023-05-08T09:17:39.634Z,100.00
2023-05-08T09:20:09.334Z,100.00
2023-05-08T09:22:39.264Z,100.00
2023-05-08T09:25:07.974Z,100.00
2023-05-08T09:27:35.802Z,100.00
2023-05-08T09:30:04.943Z,100.00
2023-05-08T09:32:36.332Z,100.00
2023-05-08T09:35:05.818Z,100.00
2023-05-08T09:37:36.036Z,100.00
2023-05-08T09:40:18.872Z,100.00
2023-05-08T09:42:48.257Z,100.00
2023-05-08T09:45:28.242Z,100.00
2023-05-08T09:47:58.803Z,100.00
2023-05-08T09:50:26.391Z,100.00
2023-05-08T09:52:54.063Z,100.00
2023-05-08T09:55:21.715Z,100.00
2023-05-08T09:57:55.549Z,100.00
2023-05-08T10:00:24.341Z,100.00
2023-05-08T10:02:58.277Z,100.00
2023-05-08T10:05:27.521Z,100.00
2023-05-08T10:07:55.399Z,100.00
2023-05-08T10:10:26.233Z,100.00
2023-05-08T10:12:54.801Z,100.00
2023-05-08T10:15:25.245Z,100.00
2023-05-08T10:17:55.717Z,100.00
2023-05-08T10:20:29.913Z,100.00
2023-05-08T10:22:58.382Z,100.00
2023-05-08T10:25:26.596Z,100.00
2023-05-08T10:27:59.574Z,100.00
2023-05-08T10:30:33.118Z,100.00
2023-05-08T10:33:07.830Z,100.00
2023-05-08T10:35:38.256Z,100.00
2023-05-08T10:38:09.299Z,100.00
2023-05-08T10:40:38.894Z,100.00
2023-05-08T10:43:08.124Z,100.00
2023-05-08T10:45:36.682Z,100.00
2023-05-08T10:48:17.137Z,100.00
2023-05-08T10:51:01.707Z,100.00
2023-05-08T10:53:35.534Z,100.00
2023-05-08T10:56:03.665Z,100.00
2023-05-08T10:58:32.440Z,100.00
2023-05-08T11:01:16.881Z,100.00
2023-05-08T11:03:47.008Z,100.00
2023-05-08T11:06:17.442Z,100.00
2023-05-08T11:08:53.369Z,100.00
2023-05-08T11:11:32.487Z,100.00
2023-05-08T11:14:11.652Z,100.00
2023-05-08T11:17:10.876Z,100.00
2023-05-08T11:19:39.039Z,100.00
2023-05-08T11:22:16.662Z,100.00
2023-05-08T11:24:56.850Z,100.00
2023-05-08T11:27:36.585Z,100.00
2023-05-08T11:30:26.947Z,100.00
2023-05-08T11:33:16.230Z,100.00
2023-05-08T11:35:55.615Z,100.00
2023-05-08T11:38:30.706Z,100.00
2023-05-08T11:41:01.000Z,100.00
2023-05-08T11:43:57.389Z,100.00
2023-05-08T11:46:42.226Z,100.00
2023-05-08T11:49:14.783Z,100.00
2023-05-08T11:51:42.649Z,100.00
2023-05-08T11:54:13.884Z,100.00
2023-05-08T11:56:41.458Z,100.00
2023-05-08T11:59:10.923Z,100.00
2023-05-08T12:01:38.268Z,100.00
2023-05-08T12:04:07.980Z,100.00
2023-05-08T12:06:38.587Z,100.00
2023-05-08T12:09:14.637Z,100.00
2023-05-08T12:11:42.524Z,100.00
2023-05-08T12:14:11.136Z,100.00
2023-05-08T12:16:39.585Z,100.00
2023-05-08T12:19:12.136Z,100.00
2023-05-08T12:21:40.039Z,100.00
2023-05-08T12:24:11.323Z,100.00
2023-05-08T12:26:41.272Z,100.00
2023-05-08T12:29:09.374Z,100.00
2023-05-08T12:31:37.521Z,100.00
2023-05-08T12:34:05.810Z,100.00
2023-05-08T12:36:36.630Z,100.00
2023-05-08T12:39:11.829Z,100.00
2023-05-08T12:41:47.781Z,100.00
2023-05-08T12:44:20.266Z,100.00
2023-05-08T12:46:49.618Z,100.00
2023-05-08T12:49:24.476Z,100.00
2023-05-08T12:51:52.160Z,100.00
2023-05-08T12:54:20.659Z,100.00
2023-05-08T12:56:50.317Z,100.00
2023-05-08T12:59:18.510Z,100.00
2023-05-08T13:01:51.227Z,100.00
2023-05-08T13:04:18.958Z,100.00
2023-05-08T13:06:55.539Z,100.00
2023-05-08T13:09:23.876Z,100.00
2023-05-08T13:11:53.311Z,100.00
2023-05-08T13:14:21.494Z,100.00
2023-05-08T13:16:51.371Z,100.00
2023-05-08T13:19:18.806Z,100.00
2023-05-08T13:21:46.404Z,100.00
2023-05-08T13:24:14.390Z,100.00
2023-05-08T13:26:41.997Z,100.00
2023-05-08T13:29:10.896Z,100.00
2023-05-08T13:31:38.628Z,100.00
2023-05-08T13:34:06.372Z,100.00
2023-05-08T13:36:34.010Z,100.00
2023-05-08T13:39:01.593Z,100.00
2023-05-08T13:41:29.066Z,100.00
2023-05-08T13:43:56.310Z,100.00
2023-05-08T13:46:26.596Z,100.00
2023-05-08T13:48:54.367Z,100.00
2023-05-08T13:51:21.645Z,100.00
2023-05-08T13:53:48.399Z,100.00
2023-05-08T13:56:16.780Z,100.00
2023-05-08T13:58:44.467Z,100.00
2023-05-08T14:01:25.874Z,100.00
2023-05-08T14:03:56.045Z,100.00
2023-05-08T14:06:24.321Z,100.00
2023-05-08T14:08:54.429Z,100.00
2023-05-08T14:11:23.705Z,100.00
2023-05-08T14:13:51.676Z,100.00
2023-05-08T14:16:19.403Z,100.00
2023-05-08T14:18:46.814Z,100.00
2023-05-08T14:21:15.685Z,100.00
2023-05-08T14:23:43.229Z,100.00
2023-05-08T14:26:10.916Z,100.00
2023-05-08T14:28:38.680Z,100.00
2023-05-08T14:31:06.509Z,100.00
2023-05-08T14:33:34.091Z,100.00
2023-05-08T14:36:01.420Z,100.00
2023-05-08T14:38:30.518Z,100.00
2023-05-08T14:40:57.741Z,100.00
2023-05-08T14:43:25.130Z,100.00
2023-05-08T14:45:52.431Z,100.00
2023-05-08T14:48:20.253Z,100.00
2023-05-08T14:50:47.815Z,100.00
2023-05-08T14:53:15.344Z,100.00
2023-05-08T14:55:45.576Z,100.00
2023-05-08T14:58:13.000Z,100.00
2023-05-08T15:00:40.483Z,100.00
2023-05-08T15:03:08.354Z,100.00
2023-05-08T15:05:37.555Z,100.00
2023-05-08T15:08:05.819Z,100.00
2023-05-08T15:10:33.116Z,100.00
2023-05-08T15:13:02.358Z,100.00
2023-05-08T15:15:29.939Z,100.00
2023-05-08T15:17:57.544Z,100.00
2023-05-08T15:20:25.970Z,100.00
2023-05-08T15:22:53.355Z,100.00
2023-05-08T15:25:21.245Z,100.00
2023-05-08T15:27:48.543Z,100.00
2023-05-08T15:30:19.021Z,100.00
2023-05-08T15:32:46.723Z,100.00
2023-05-08T15:35:14.771Z,100.00
2023-05-08T15:37:42.625Z,100.00
2023-05-08T15:40:10.242Z,100.00
2023-05-08T15:42:37.358Z,100.00
2023-05-08T15:45:05.553Z,100.00
2023-05-08T15:47:35.286Z,100.00
2023-05-08T15:50:03.061Z,100.00
2023-05-08T15:52:30.724Z,100.00
2023-05-08T15:54:58.067Z,100.00
2023-05-08T15:57:26.039Z,100.00
2023-05-08T15:59:52.765Z,100.00
2023-05-08T16:02:20.396Z,100.00
2023-05-08T19:16:39.342Z,0.00
2023-05-08T19:19:06.595Z,0.00
2023-05-08T19:21:33.901Z,0.00
2023-05-08T19:24:01.164Z,0.00
2023-05-08T19:26:28.341Z,0.98
2023-05-08T19:28:55.090Z,73.89
2023-05-08T19:31:22.037Z,100.00
2023-05-08T19:33:50.344Z,100.00
2023-05-08T19:36:17.262Z,100.00
2023-05-08T19:38:44.532Z,100.00
2023-05-08T19:41:12.019Z,100.00
2023-05-08T19:43:39.349Z,100.00
2023-05-08T19:46:06.330Z,100.00
2023-05-08T19:48:34.558Z,100.00
2023-05-08T19:51:07.497Z,100.00
2023-05-08T19:53:35.052Z,100.00
2023-05-08T19:56:01.874Z,100.00
2023-05-08T19:58:28.701Z,100.00
2023-05-08T20:00:55.404Z,100.00
2023-05-08T20:03:22.878Z,100.00
2023-05-08T20:05:52.439Z,100.00
2023-05-08T20:08:20.499Z,100.00
2023-05-08T20:10:47.152Z,100.00
2023-05-08T20:25:37.492Z,100.00
2023-05-08T20:30:50.590Z,100.00
2023-05-08T20:33:20.894Z,100.00
2023-05-08T20:35:50.813Z,100.00
2023-05-08T20:43:56.409Z,100.00
2023-05-08T20:46:23.858Z,100.00
2023-05-08T20:48:58.134Z,100.00
2023-05-08T20:51:24.764Z,100.00
2023-05-08T20:53:51.596Z,100.00
2023-05-08T20:56:19.137Z,100.00
2023-05-08T20:58:45.917Z,100.00
2023-05-08T21:01:13.955Z,100.00
2023-05-08T21:03:40.840Z,100.00
2023-05-08T21:06:07.662Z,100.00
2023-05-08T21:08:34.575Z,100.00
2023-05-08T21:11:01.348Z,100.00
2023-05-08T21:13:28.048Z,100.00
2023-05-08T21:15:55.021Z,100.00
2023-05-08T21:18:23.117Z,100.00
2023-05-08T21:20:49.857Z,100.00
2023-05-08T21:23:16.836Z,100.00
2023-05-08T21:25:45.458Z,100.00
2023-05-08T21:28:12.132Z,100.00
2023-05-08T21:30:38.962Z,100.00
2023-05-08T21:33:05.644Z,100.00
2023-05-08T21:35:33.789Z,100.00
2023-05-08T21:38:00.747Z,100.00
2023-05-08T21:40:27.368Z,100.00
2023-05-08T21:42:54.223Z,100.00
2023-05-08T21:45:21.159Z,100.00
2023-05-08T21:47:47.857Z,100.00
2023-05-08T21:50:14.558Z,100.00
2023-05-08T21:52:42.756Z,100.00
2023-05-08T21:55:09.790Z,100.00
2023-05-08T21:57:36.365Z,100.00
2023-05-08T22:00:04.281Z,100.00
2023-05-08T22:02:31.065Z,100.00
2023-05-08T22:04:57.828Z,100.00
2023-05-08T22:07:24.817Z,100.00
2023-05-08T22:09:52.870Z,100.00
2023-05-08T22:12:19.537Z,100.00
2023-05-08T22:14:46.397Z,100.00
2023-05-08T22:17:12.999Z,100.00
2023-05-08T22:19:39.604Z,100.00
2023-05-08T22:22:06.491Z,100.00
2023-05-08T22:24:33.164Z,100.00
2023-05-08T22:27:01.125Z,100.00
2023-05-08T22:29:30.335Z,100.00
2023-05-08T22:31:57.053Z,100.00
2023-05-08T22:34:23.698Z,100.00
2023-05-08T22:36:50.553Z,100.00
2023-05-08T22:39:17.135Z,100.00
2023-05-08T22:41:43.909Z,100.00
2023-05-08T22:44:11.968Z,100.00
2023-05-08T22:46:38.865Z,100.00
2023-05-08T22:49:05.845Z,100.00
2023-05-08T22:51:32.619Z,100.00
2023-05-08T22:53:59.283Z,100.00
2023-05-08T22:56:25.858Z,100.00
2023-05-08T22:58:52.796Z,100.00
2023-05-08T23:01:20.914Z,100.00
2023-05-08T23:03:47.532Z,100.00
2023-05-08T23:06:14.456Z,100.00
2023-05-08T23:08:41.145Z,100.00
2023-05-08T23:11:07.804Z,100.00
2023-05-08T23:13:34.547Z,100.00
2023-05-08T23:16:01.315Z,100.00
2023-05-08T23:18:29.339Z,100.00
2023-05-08T23:20:56.041Z,100.00
2023-05-08T23:23:22.687Z,100.00
2023-05-08T23:25:49.428Z,100.00
2023-05-08T23:28:16.268Z,100.00
2023-05-08T23:30:42.891Z,100.00
2023-05-08T23:33:09.802Z,100.00
2023-05-08T23:35:38.008Z,100.00
2023-05-08T23:38:04.712Z,100.00
2023-05-08T23:40:31.288Z,100.00
2023-05-08T23:42:58.017Z,100.00
2023-05-08T23:45:24.680Z,100.00
2023-05-08T23:47:51.395Z,100.00
2023-05-08T23:50:18.063Z,100.00
2023-05-08T23:52:46.178Z,100.00
2023-05-08T23:55:13.055Z,100.00
2023-05-08T23:57:39.883Z,100.00
